Forside
METAR-TAF:

METAR-TAF

Lufthavne :

Såtenäs, Sverige

Breddekreds: 58-26N, længdekreds: 012-42E, højde: 54 m

Aktuelle vejr

Denne rapport blev lavet for 39 minutter siden, kl. 15:20 UTC
Vind 18 kt fra vestsydvest
Temperatur 13°C
Fugtighed 54%
Tryk 1019 hPa
Sigt 10 km eller mere

METAR: ESIB 081520Z AUTO 24018KT 9999 NCD 13/04 Q1019

Tid: 17:59 (15:59 UTC)


TAF: fraværende

Vejrobservationer og prognoser fra mere end 4000 lufthavne (METAR og TAF).

De gule og røde prikker repræsenterer de meteorologiske stationer.

Flyt musen over at se navnet på stationen.

Så klik over at se vejr observationer og prognoser.

At skifte det kort: Klik på de grønne knapper med et sort kors for at zoome ind; på den grønne knap med en bindestreg for at zoome ud; eller på de grønne pile for tilstødende kort.


METAR-TAF: